X  Tanca Dades meteorològiques de l'aviació METAR     EDDM Munich Airport
Temperatura
84°F Temperatura
61°F Rosada
45% Humitat



Vent
5 MPH
8 KM/H
2 M/S
4 NUS



280°
O
Condicions actuals

Sense núvols Sense núvols
Pressió 1014.9 (hPa) - 29.97 (inHg)
Visibilitat 6 (milla) - 9.7 (km)
Aeroport
Codi aeroport EDDM

Ubicació: Munich Airport
Distància: 73 (mi)

Metar:
EDDM 191520Z AUTO 28004KT 230V320 CAVOK 29/16 Q1015 NOSIG

Temps: 19-06-2024 15:20 CEST